Luís Cunha

Olheiro-Chefe - Santa Cruz
19 Ago 2027
Quinta-feira
Processo

Personalidade

Adaptabilidade (1) Ambição (20) Controvérsia (1) Lealdade (13) Pressão (1) Profissionalismo (6) Espírito Esportivo (3) Temperamento (1)

Perfil

Estilo de Treinamento Democrático
Licença Nacional B
Determinação 6
Gestão de Pessoas 11
Motivação 7
Disciplina 10
Satisfação no Trabalho
86%
Fadiga
0%
Função Olheiro-Chefe
Salário 16.5K p/s
Contrato 14.03.2030

Desempenho

Comportamento Bom
Eficácia do Treinamento
28%
Desenvolvimento do Jogador
50%
Prevenção de Lesões
20%
Implementação Tática
25%

Eventos Recentes

Participou de uma reunião de recrutamento agora
Recomendou um alvo de transferência agora
Recomendou um alvo de transferência agora
Participou de uma reunião de recrutamento 7d atrás
Recomendou um alvo de transferência 7d atrás
Recomendou um alvo de transferência 7d atrás
Recomendou um alvo de transferência 7d atrás
Participou de uma reunião de recrutamento 7d atrás

Monitorando agora

123
Jogador Clube Status Habilidade Confiança Observado Última observação Último voto
Rhuan Gabriel Cruzeiro Negociando 103 / 106 65% 1 14.06.2027 Aprovar
Robert Mizo Ashanti Gold Ativo 112 / 109 40% 3 31.05.2027 -
Gerônimo Cheltenham Town Ativo 83 / 78 40% 3 30.05.2027 -
Kwame Opoku Asante Kotoko Ativo 110 / 86 40% 2 30.05.2027 -
Calum Kavanagh Oldham Athletic Ativo 86 / 102 40% 1 30.05.2027 -
Gabriel Bravo Hearts of Oak Ativo 113 / 110 40% 4 29.05.2027 -
Josh Windass Wrexham Ativo 122 / 127 40% 1 29.05.2027 -
Lewis McCann Fleetwood Town Ativo 114 / 91 40% 3 27.05.2027 -
Simone Mazzocchi Cosenza Ativo 125 / 103 40% 1 27.05.2027 -
Duncan Watmore Crewe Alexandra Ativo 114 / 118 40% 1 27.05.2027 -
Louis Appéré Cambridge United Ativo 112 / 109 40% 2 26.05.2027 -
Rodolfo Cheltenham Town Ativo 79 / 95 40% 1 26.05.2027 -
Bismark Asante Ashanti Gold Ativo 98 / 100 40% 3 23.05.2027 -
Daniel Udoh Salford City Ativo 93 / 113 40% 2 22.05.2027 -
Mattia Bortolussi Padova Ativo 116 / 116 40% 2 22.05.2027 -
Callum Stead Barnet Ativo 105 / 95 40% 1 21.05.2027 -
Lorenzo Insigne Sampdoria Ativo 120 / 129 40% 3 18.05.2027 Observar
Carlton Morris Derby County Ativo 121 / 110 40% 1 16.05.2027 -
Ekain Orobengoa Real Sociedad Ativo 104 / 115 40% 1 16.05.2027 -
Mohammed Yahaya Great Olympics Ativo 87 / 88 40% 1 16.05.2027 -
Aaron Drinan Swindon Town Ativo 102 / 107 40% 4 15.05.2027 -
Guilherme Neiva AVS Ativo 104 / 113 40% 2 15.05.2027 -
Thomas Henry Reggiana Ativo 118 / 125 40% 1 13.05.2027 Mais informações
Giacomo Zecca Torres Ativo 120 / 112 40% 1 13.05.2027 -
Walterson Cittadella Ativo 103 / 84 40% 2 10.05.2027 -
Shayne Lavery Cambridge United Ativo 119 / 96 40% 1 10.05.2027 Mais informações
Danyil Alefirenko Chornomorets Ativo 119 / 96 40% 1 09.05.2027 -
Jordan Ayew Leicester City Ativo 120 / 121 40% 1 08.05.2027 -
Promise Omochere Bristol Rovers Ativo 88 / 84 40% 1 07.05.2027 -
Lee Bonis Chesterfield Ativo 110 / 98 40% 2 06.05.2027 -
Guilherme Ankaragucu Ativo 129 / 125 40% 3 06.05.2027 Observar
Emanuele Schimmenti Potenza Ativo 122 / 104 40% 1 04.05.2027 Mais informações
Oto John ES Mostaganem Ativo 114 / 108 40% 1 04.05.2027 Mais informações
Isaac Essien WAFA Ativo 100 / 95 40% 1 03.05.2027 -
Edarlyn Reyes Arsenal Tula Ativo 103 / 96 40% 1 29.04.2027 -
Nacer Tielemans Mouscron Ativo 133 / 141 40% 1 28.04.2027 -
Ahmed Hassan MC Alger Ativo 118 / 117 40% 1 26.04.2027 -
Pablo Fernández Leiria Ativo 123 / 120 40% 1 25.04.2027 -
Bryan Róchez Chaves Ativo 100 / 100 40% 1 25.04.2027 -
Tiago Leite Felgueiras Ativo 104 / 110 40% 2 23.04.2027 -
Mohammed Bouldini Académico de Viseu Ativo 127 / 115 40% 2 22.04.2027 -
Mika Lusitânia Lourosa Ativo 97 / 118 40% 1 22.04.2027 -
Lucas Duarte Felgueiras Ativo 106 / 101 40% 2 21.04.2027 -
Harry Cornick AFC Wimbledon Ativo 102 / 90 40% 1 21.04.2027 -
Victor Adeboyejo Ismaily Ativo 115 / 111 40% 1 21.04.2027 -
Toni Tamarit Alverca Ativo 125 / 117 40% 1 20.04.2027 -
Juan Muñoz Leiria Ativo 134 / 124 40% 3 16.04.2027 Observar
Ricardo Schutte Penafiel Ativo 95 / 105 40% 2 16.04.2027 -
Dylan Nandín Arouca Ativo 127 / 124 40% 1 15.04.2027 -
Ronaldo Lumungo Pacos de Ferreira Ativo 106 / 116 40% 1 15.04.2027 -
Kévin Zohi Torreense Ativo 107 / 114 40% 3 08.04.2027 -
Rui Pedro Felgueiras Ativo 125 / 103 40% 1 08.04.2027 -
Miguel Falé Pacos de Ferreira Ativo 95 / 98 40% 1 08.04.2027 -
Figueiredo Alverca Ativo 128 / 131 40% 2 07.04.2027 -
Yousef Salech Cardiff City Ativo 131 / 114 40% 2 07.04.2027 -
Alfonso Trezza Arouca Ativo 118 / 122 40% 1 07.04.2027 -
Dom Ballard Leyton Orient Ativo 119 / 124 40% 1 06.04.2027 -
Henrique Araújo Casa Pia Ativo 124 / 133 40% 1 06.04.2027 -
Andre Green AVS Ativo 105 / 121 40% 1 06.04.2027 -
Martín Tejón Maritimo Ativo 108 / 130 40% 1 06.03.2027 -
Pau Víctor AVS Ativo 132 / 143 40% 4 05.03.2027 -
Ianis Stoica Estrela da Amadora Ativo 122 / 113 40% 1 05.03.2027 -
Korede Osundina Casa Pia Ativo 123 / 112 40% 2 04.03.2027 -
Adnan Courtois KV Oostende Ativo 137 / 145 40% 1 04.03.2027 -
Romelu Castagne KV Oostende Ativo 146 / 124 40% 1 03.03.2027 -
Moussa Dembélé CR Belouizdad Ativo 126 / 127 40% 1 03.03.2027 -
Patson Daka Leicester City Ativo 120 / 119 40% 1 01.03.2027 -
Christian Ebere Cruz Azul Ativo 113 / 111 40% 1 01.03.2027 -
Matheus Baraka São Paulo Ativo 79 / 88 58% 1 21.12.2026 Aprovar
Amar Memić Casa Pia Ativo 127 / 128 62% 1 01.12.2026 Aprovar
Andreas Trimmel Red Bull Salzburg Ativo 131 / 131 60% 1 01.12.2026 Aprovar
Jordan van der Gaag Leiria Ativo 128 / 102 40% 4 29.11.2026 -
Lorougnon Gohi Académico de Viseu Ativo 108 / 106 40% 1 29.11.2026 -
Paulo Moreira Farense Ativo 123 / 120 40% 3 28.11.2026 -
Yanis Begraoui Estoril Praia Ativo 122 / 123 40% 3 28.11.2026 -
Luís Esteves Atlas Ativo 127 / 117 40% 2 24.11.2026 -
Renato Sanches AVS Ativo 145 / 125 40% 1 24.11.2026 -
João Carvalho Estoril Praia Ativo 131 / 129 40% 1 23.11.2026 -
Jair Silva Leiria Ativo 107 / 99 40% 1 23.11.2026 -
André Silva Tondela Ativo 138 / 137 40% 3 22.11.2026 -
Reda Khadra Qarabag Ativo 130 / 136 40% 2 22.11.2026 -
Gustavo Torres Leixões Ativo 123 / 119 40% 1 18.11.2026 -
Vitinho Santa Clara Ativo 118 / 102 40% 1 16.11.2026 -
Cristian Ferreira Académico de Viseu Ativo 104 / 121 40% 1 16.11.2026 -
Santi García Gil Vicente Ativo 122 / 133 40% 1 11.11.2026 -
Francisco Moura Lusitânia Lourosa Ativo 133 / 124 40% 2 10.11.2026 -
Pablo Rosario Porto Ativo 150 / 133 40% 1 10.11.2026 -
Juan María Alcedo Torreense Ativo 131 / 126 40% 3 08.11.2026 -
Gil Dias Famalicao Ativo 111 / 132 40% 1 06.11.2026 -
Naïs Djouahra Arouca Ativo 120 / 116 40% 3 04.11.2026 -
Valery Académico de Viseu Ativo 110 / 134 40% 2 04.11.2026 -
Jalen Blesa Rio Ave Ativo 121 / 126 40% 1 03.11.2026 -
Vinícius Lopes Santa Clara Ativo 107 / 133 40% 1 03.11.2026 -
Zé Leite Leixões Ativo 128 / 108 40% 1 02.11.2026 -
Shaylon Mirassol Ativo 135 / 119 40% 1 30.10.2026 -
Tiago Esgaio Arouca Ativo 133 / 117 40% 1 30.10.2026 -
Manu Pozo Torreense Ativo 125 / 116 40% 1 29.10.2026 -
Taichi Fukui Arouca Ativo 110 / 117 40% 1 29.10.2026 -
Luis Quintero Torreense Ativo 111 / 137 40% 1 23.10.2026 -
Brandon Aguilera Rio Ave Ativo 120 / 113 40% 3 21.10.2026 -
Rodrigo Pinheiro Famalicao Ativo 139 / 123 40% 1 20.10.2026 -
Juninho Pumas UNAM Ativo 127 / 114 40% 1 17.10.2026 -
Ole Pohlmann Rio Ave Ativo 104 / 131 40% 2 15.10.2026 -
Kélian Nsona Casa Pia Ativo 124 / 119 40% 1 05.10.2026 -
Lee Hyun-Ju Arouca Ativo 109 / 117 40% 1 05.10.2026 -
Marcos Antonio Sport Recife Ativo 145 / 137 40% 1 23.09.2026 -
Dinis Pinto Moreirense Ativo 121 / 126 40% 2 16.09.2026 -
Jérémy Livolant Casa Pia Ativo 136 / 128 40% 1 15.09.2026 -
Gabriel Taliari Juventude Ativo 113 / 124 40% 1 15.09.2026 -
Tunde AVS Ativo 103 / 118 40% 1 12.09.2026 -
Gabriel Jesus Barcelona Ativo 156 / 167 40% 2 09.09.2026 -
Sebastián Córdova Pumas UNAM Ativo 133 / 122 40% 1 08.09.2026 -
Emerson Royal Flamengo Ativo 126 / 132 40% 1 28.08.2026 -
Rafik Guitane Estoril Praia Ativo 120 / 128 40% 1 25.08.2026 -
Mateo Flores Arouca Ativo 123 / 124 40% 1 19.08.2026 -
Sergio Reguilón Inter Miami CF Ativo 128 / 145 40% 1 19.08.2026 -
Rony Lopes Tondela Ativo 122 / 128 40% 1 15.08.2026 -
Pedro Lima Sporting CP Ativo 122 / 115 40% 1 08.08.2026 -
Martim Fernandes Porto Ativo 139 / 129 40% 1 07.08.2026 -
Gonçalo Nogueira Vitoria Guimaraes Ativo 120 / 128 40% 1 06.08.2026 -
Luís Guilherme Sporting CP Ativo 109 / 131 40% 1 06.08.2026 -
William Gomes Porto Ativo 123 / 148 40% 2 05.08.2026 -
Sergio Bermejo Gil Vicente Ativo 97 / 102 40% 1 02.08.2026 -